createdAt,value
2023-04-26T00:01:54.213Z,5.51
2023-04-26T00:05:05.261Z,5.54
2023-04-26T00:08:09.409Z,5.45
2023-04-26T00:11:12.414Z,5.42
2023-04-26T00:14:18.726Z,5.41
2023-04-26T00:17:24.818Z,5.38
2023-04-26T00:20:27.963Z,5.27
2023-04-26T00:23:32.049Z,5.27
2023-04-26T00:26:35.433Z,5.16
2023-04-26T00:29:38.804Z,5.13
2023-04-26T00:32:43.709Z,5.16
2023-04-26T00:35:46.812Z,5.12
2023-04-26T00:38:49.914Z,5.10
2023-04-26T00:41:53.171Z,5.06
2023-04-26T00:45:03.700Z,5.03
2023-04-26T00:48:09.483Z,4.95
2023-04-26T00:51:13.769Z,4.97
2023-04-26T00:54:17.224Z,4.89
2023-04-26T00:57:20.262Z,4.90
2023-04-26T01:00:23.446Z,4.83
2023-04-26T01:03:28.363Z,4.82
2023-04-26T01:06:35.818Z,4.82
2023-04-26T01:09:42.155Z,4.85
2023-04-26T01:12:45.277Z,4.77
2023-04-26T01:15:49.714Z,4.75
2023-04-26T01:18:55.613Z,4.73
2023-04-26T01:21:58.614Z,4.72
2023-04-26T01:25:07.680Z,4.73
2023-04-26T01:28:10.671Z,4.69
2023-04-26T01:31:13.808Z,4.68
2023-04-26T01:34:17.656Z,4.66
2023-04-26T01:37:22.461Z,4.67
2023-04-26T01:40:27.060Z,4.68
2023-04-26T01:43:30.795Z,4.65
2023-04-26T01:46:33.851Z,4.63
2023-04-26T01:49:37.010Z,4.56
2023-04-26T01:52:40.019Z,4.55
2023-04-26T01:55:44.336Z,4.55
2023-04-26T01:58:50.696Z,4.50
2023-04-26T02:01:54.068Z,4.47
2023-04-26T02:04:57.211Z,4.45
2023-04-26T02:08:02.940Z,4.41
2023-04-26T02:11:07.411Z,4.42
2023-04-26T02:14:12.529Z,4.44
2023-04-26T02:17:16.358Z,4.34
2023-04-26T02:20:19.523Z,4.37
2023-04-26T02:23:24.611Z,4.31
2023-04-26T02:26:29.040Z,4.28
2023-04-26T02:29:43.680Z,4.23
2023-04-26T02:32:50.960Z,4.21
2023-04-26T02:36:00.151Z,4.17
2023-04-26T02:39:06.210Z,4.18
2023-04-26T02:42:11.699Z,4.17
2023-04-26T02:45:15.567Z,4.15
2023-04-26T02:48:19.257Z,4.11
2023-04-26T02:51:22.371Z,4.07
2023-04-26T02:54:28.586Z,4.04
2023-04-26T02:57:36.480Z,4.04
2023-04-26T03:00:39.817Z,4.00
2023-04-26T03:03:45.428Z,4.07
2023-04-26T03:06:48.874Z,4.01
2023-04-26T03:09:55.111Z,3.99
2023-04-26T03:12:59.610Z,3.97
2023-04-26T03:16:02.744Z,3.95
2023-04-26T03:19:05.897Z,3.94
2023-04-26T03:22:09.115Z,3.89
2023-04-26T03:25:13.266Z,3.86
2023-04-26T03:28:18.158Z,3.88
2023-04-26T03:31:21.992Z,3.82
2023-04-26T03:34:25.250Z,3.81
2023-04-26T03:37:28.470Z,3.75
2023-04-26T03:40:38.728Z,3.70
2023-04-26T03:43:43.402Z,3.74
2023-04-26T03:46:46.418Z,3.74
2023-04-26T03:49:49.795Z,3.75
2023-04-26T03:52:52.875Z,3.73
2023-04-26T03:55:56.892Z,3.66
2023-04-26T03:59:01.360Z,3.67
2023-04-26T04:02:04.968Z,3.74
2023-04-26T04:05:09.241Z,3.73
2023-04-26T04:08:13.882Z,3.68
2023-04-26T04:11:16.980Z,3.67
2023-04-26T04:14:21.406Z,3.74
2023-04-26T04:17:24.871Z,3.71
2023-04-26T04:20:28.593Z,3.70
2023-04-26T04:23:33.532Z,3.74
2023-04-26T04:26:39.315Z,3.72
2023-04-26T04:29:43.961Z,3.72
2023-04-26T04:32:47.416Z,3.78
2023-04-26T04:35:54.154Z,3.78
2023-04-26T04:39:11.332Z,3.81
2023-04-26T04:42:15.231Z,3.84
2023-04-26T04:45:22.644Z,3.92
2023-04-26T04:48:28.276Z,3.93
2023-04-26T04:51:32.090Z,3.91
2023-04-26T04:54:35.475Z,3.96
2023-04-26T04:57:42.634Z,3.98
2023-04-26T05:00:47.472Z,4.02
2023-04-26T05:04:02.194Z,4.09
2023-04-26T05:07:06.620Z,4.13
2023-04-26T05:10:12.236Z,4.28
2023-04-26T05:13:15.462Z,4.19
2023-04-26T05:16:19.855Z,4.25
2023-04-26T05:19:24.854Z,4.29
2023-04-26T05:22:28.807Z,4.29
2023-04-26T05:25:32.162Z,4.41
2023-04-26T05:28:44.004Z,4.46
2023-04-26T05:32:01.796Z,4.49
2023-04-26T05:35:17.693Z,4.60
2023-04-26T05:38:21.928Z,4.64
2023-04-26T05:41:25.086Z,4.71
2023-04-26T05:44:28.276Z,4.67
2023-04-26T05:47:33.358Z,4.75
2023-04-26T05:50:37.702Z,4.78
2023-04-26T05:53:42.604Z,4.85
2023-04-26T05:56:45.647Z,4.88
2023-04-26T05:59:48.757Z,4.88
2023-04-26T06:02:54.398Z,5.00
2023-04-26T06:05:58.112Z,5.14
2023-04-26T06:09:01.546Z,5.23
2023-04-26T06:12:05.572Z,5.27
2023-04-26T06:15:12.877Z,5.33
2023-04-26T06:18:17.733Z,5.33
2023-04-26T06:21:22.896Z,5.46
2023-04-26T06:24:26.127Z,5.64
2023-04-26T06:27:29.230Z,5.71
2023-04-26T06:30:32.231Z,5.91
2023-04-26T06:33:36.646Z,6.00
2023-04-26T06:36:39.735Z,6.04
2023-04-26T06:39:42.833Z,6.12
2023-04-26T06:42:46.040Z,6.14
2023-04-26T06:46:09.098Z,6.23
2023-04-26T06:49:13.482Z,6.37
2023-04-26T06:52:16.867Z,6.34
2023-04-26T06:55:20.045Z,6.49
2023-04-26T06:58:23.112Z,6.46
2023-04-26T07:01:26.406Z,6.65
2023-04-26T07:04:32.128Z,6.51
2023-04-26T07:07:35.250Z,6.62
2023-04-26T07:10:40.001Z,6.75
2023-04-26T07:13:43.020Z,6.97
2023-04-26T07:16:46.553Z,7.33
2023-04-26T07:19:55.537Z,7.23
2023-04-26T07:23:00.594Z,7.35
2023-04-26T07:26:04.730Z,7.47
2023-04-26T07:29:07.723Z,7.64
2023-04-26T07:32:11.218Z,7.59
2023-04-26T07:35:16.866Z,7.75
2023-04-26T07:38:20.686Z,7.76
2023-04-26T07:41:23.914Z,7.96
2023-04-26T07:44:27.239Z,8.07
2023-04-26T07:47:31.892Z,7.95
2023-04-26T07:50:36.353Z,8.15
2023-04-26T07:53:39.674Z,8.03
2023-04-26T07:56:42.743Z,8.36
2023-04-26T07:59:46.015Z,8.11
2023-04-26T08:02:49.384Z,7.80
2023-04-26T08:05:54.054Z,8.41
2023-04-26T08:08:57.301Z,8.62
2023-04-26T08:12:00.418Z,8.79
2023-04-26T08:15:04.680Z,8.47
2023-04-26T08:18:08.531Z,8.19
2023-04-26T08:21:15.139Z,7.93
2023-04-26T08:24:18.617Z,7.86
2023-04-26T08:27:22.133Z,7.54
2023-04-26T08:30:25.530Z,7.77
2023-04-26T08:33:28.731Z,8.02
2023-04-26T08:36:37.214Z,8.28
2023-04-26T08:39:41.616Z,8.30
2023-04-26T08:42:44.867Z,8.62
2023-04-26T08:45:48.412Z,8.34
2023-04-26T08:49:02.304Z,8.31
2023-04-26T08:52:12.318Z,7.84
2023-04-26T08:55:21.949Z,6.89
2023-04-26T08:58:25.948Z,7.01
2023-04-26T09:01:31.768Z,7.62
2023-04-26T09:04:36.264Z,8.17
2023-04-26T09:07:44.632Z,8.52
2023-04-26T09:10:48.191Z,8.75
2023-04-26T09:13:51.572Z,8.42
2023-04-26T09:16:55.677Z,8.26
2023-04-26T09:20:02.123Z,8.15
2023-04-26T09:23:09.012Z,8.36
2023-04-26T09:26:20.987Z,8.36
2023-04-26T09:29:24.253Z,8.30
2023-04-26T09:32:29.186Z,8.52
2023-04-26T09:35:35.501Z,9.00
2023-04-26T09:38:44.615Z,9.36
2023-04-26T09:41:47.737Z,9.18
2023-04-26T09:44:51.832Z,9.09
2023-04-26T09:47:55.185Z,9.03
2023-04-26T09:50:59.893Z,9.11
2023-04-26T09:54:04.594Z,9.83
2023-04-26T09:57:07.975Z,9.42
2023-04-26T10:00:14.036Z,9.13
2023-04-26T10:03:19.223Z,9.00
2023-04-26T10:06:22.425Z,9.46
2023-04-26T10:09:27.856Z,9.34
2023-04-26T10:12:30.881Z,9.18
2023-04-26T10:15:34.679Z,9.07
2023-04-26T10:18:38.286Z,9.28
2023-04-26T10:21:44.392Z,9.31
2023-04-26T10:24:50.617Z,9.11
2023-04-26T10:27:54.333Z,9.37
2023-04-26T10:30:58.768Z,9.52
2023-04-26T10:34:21.562Z,9.39
2023-04-26T10:37:24.628Z,9.08
2023-04-26T10:40:33.203Z,8.76
2023-04-26T10:43:36.333Z,8.52
2023-04-26T10:46:43.318Z,8.17
2023-04-26T10:49:48.371Z,8.02
2023-04-26T10:53:07.058Z,8.04
2023-04-26T10:56:11.436Z,8.18
2023-04-26T10:59:36.199Z,8.35
2023-04-26T11:02:48.318Z,8.73
2023-04-26T11:05:55.509Z,9.04
2023-04-26T11:09:01.286Z,9.85
2023-04-26T11:12:08.961Z,9.84
2023-04-26T11:15:14.185Z,9.53
2023-04-26T11:18:20.828Z,9.56
2023-04-26T11:21:23.944Z,9.19
2023-04-26T11:24:27.545Z,9.10
2023-04-26T11:27:31.948Z,9.12
2023-04-26T11:30:35.215Z,9.32
2023-04-26T11:33:41.485Z,9.19
2023-04-26T11:36:46.411Z,9.26
2023-04-26T11:39:51.260Z,9.47
2023-04-26T11:42:55.638Z,9.75
2023-04-26T11:46:01.394Z,9.79
2023-04-26T11:49:04.785Z,9.89
2023-04-26T11:52:09.712Z,9.83
2023-04-26T11:55:12.817Z,9.36
2023-04-26T11:58:17.447Z,9.29
2023-04-26T12:01:24.952Z,9.26
2023-04-26T12:04:39.892Z,9.27
2023-04-26T12:07:43.085Z,9.40
2023-04-26T12:10:48.254Z,9.61
2023-04-26T12:13:52.654Z,9.55
2023-04-26T12:16:56.292Z,9.75
2023-04-26T12:19:59.396Z,10.22
2023-04-26T12:23:06.540Z,10.85
2023-04-26T12:26:11.955Z,11.31
2023-04-26T12:29:16.683Z,11.03
2023-04-26T12:32:22.457Z,10.40
2023-04-26T12:35:26.812Z,10.19
2023-04-26T12:38:29.876Z,9.93
2023-04-26T12:41:32.837Z,10.03
2023-04-26T12:44:37.566Z,9.91
2023-04-26T12:47:41.272Z,9.86
2023-04-26T12:50:45.845Z,9.88
2023-04-26T12:53:48.917Z,9.95
2023-04-26T12:56:52.229Z,9.46
2023-04-26T12:59:56.973Z,9.71
2023-04-26T13:03:00.542Z,10.26
2023-04-26T13:06:04.723Z,11.06
2023-04-26T13:09:09.717Z,11.30
2023-04-26T13:12:14.173Z,11.80
2023-04-26T13:15:18.596Z,12.54
2023-04-26T13:18:22.421Z,12.80
2023-04-26T13:21:25.658Z,12.37
2023-04-26T13:24:29.063Z,11.58
2023-04-26T13:27:34.889Z,11.56
2023-04-26T13:30:44.427Z,11.59
2023-04-26T13:33:49.254Z,11.72
2023-04-26T13:36:53.517Z,11.91
2023-04-26T13:39:56.526Z,11.73
2023-04-26T13:42:59.839Z,11.06
2023-04-26T13:46:04.506Z,10.74
2023-04-26T13:49:08.254Z,10.73
2023-04-26T13:52:19.761Z,10.72
2023-04-26T13:55:23.028Z,10.31
2023-04-26T13:58:26.212Z,10.28
2023-04-26T14:01:35.075Z,9.90
2023-04-26T14:04:39.187Z,9.75
2023-04-26T14:07:42.508Z,9.96
2023-04-26T14:10:45.816Z,10.41
2023-04-26T14:13:50.773Z,10.44
2023-04-26T14:16:56.238Z,10.28
2023-04-26T14:19:59.513Z,10.28
2023-04-26T14:23:03.500Z,10.28
2023-04-26T14:26:08.480Z,10.01
2023-04-26T14:29:11.739Z,9.91
2023-04-26T14:32:16.420Z,10.23
2023-04-26T14:35:19.635Z,11.10
2023-04-26T14:38:25.888Z,11.22
2023-04-26T14:41:29.439Z,10.78
2023-04-26T14:44:32.746Z,10.80
2023-04-26T14:47:37.704Z,10.54
2023-04-26T14:50:41.790Z,10.36
2023-04-26T14:53:47.960Z,10.20
2023-04-26T14:56:59.473Z,10.24
2023-04-26T15:00:48.120Z,10.19
2023-04-26T15:04:31.690Z,10.11
2023-04-26T15:07:41.265Z,10.09
2023-04-26T15:10:44.281Z,10.07
2023-04-26T15:13:47.365Z,9.92
2023-04-26T15:16:50.449Z,9.94
2023-04-26T15:19:57.565Z,10.10
2023-04-26T15:23:00.621Z,10.21
2023-04-26T15:26:04.559Z,10.57
2023-04-26T15:29:08.797Z,10.74
2023-04-26T15:32:12.014Z,10.61
2023-04-26T15:35:17.043Z,10.36
2023-04-26T15:38:20.877Z,10.43
2023-04-26T15:41:24.153Z,10.41
2023-04-26T15:44:28.045Z,10.46
2023-04-26T15:47:31.835Z,10.62
2023-04-26T15:50:37.680Z,10.48
2023-04-26T15:53:44.018Z,10.47
2023-04-26T15:56:47.327Z,10.36
2023-04-26T15:59:51.064Z,10.20
2023-04-26T16:02:54.468Z,10.09
2023-04-26T16:05:58.876Z,9.96
2023-04-26T16:09:20.844Z,9.99
2023-04-26T16:12:27.803Z,9.91
2023-04-26T16:15:33.618Z,9.93
2023-04-26T16:18:40.032Z,9.99
2023-04-26T16:21:44.413Z,9.87
2023-04-26T16:24:47.442Z,9.85
2023-04-26T16:27:50.802Z,9.77
2023-04-26T16:30:54.287Z,9.75
2023-04-26T16:33:57.324Z,9.74
2023-04-26T16:37:01.864Z,9.66
2023-04-26T16:40:10.377Z,9.58
2023-04-26T16:43:14.399Z,9.58
2023-04-26T16:46:17.480Z,9.56
2023-04-26T16:49:21.256Z,9.64
2023-04-26T16:52:26.045Z,9.69
2023-04-26T16:55:29.136Z,9.67
2023-04-26T16:58:32.434Z,9.65
2023-04-26T17:01:35.582Z,9.66
2023-04-26T17:04:38.800Z,9.74
2023-04-26T17:07:43.333Z,9.72
2023-04-26T17:10:47.855Z,9.74
2023-04-26T17:13:52.863Z,9.79
2023-04-26T17:16:56.486Z,9.80
2023-04-26T17:19:59.950Z,9.79
2023-04-26T17:23:09.649Z,9.89
2023-04-26T17:26:12.737Z,9.96
2023-04-26T17:29:15.859Z,9.94
2023-04-26T17:32:19.264Z,9.90
2023-04-26T17:35:22.517Z,9.75
2023-04-26T17:38:27.028Z,9.62
2023-04-26T17:41:31.102Z,9.52
2023-04-26T17:44:34.667Z,9.37
2023-04-26T17:47:38.090Z,9.33
2023-04-26T17:50:41.253Z,9.36
2023-04-26T17:53:45.916Z,9.31
2023-04-26T17:56:51.415Z,9.34
2023-04-26T17:59:54.417Z,9.19
2023-04-26T18:02:57.990Z,9.17
2023-04-26T18:06:03.898Z,9.08
2023-04-26T18:09:09.271Z,9.02
2023-04-26T18:12:12.283Z,8.96
2023-04-26T18:15:15.618Z,8.91
2023-04-26T18:18:29.453Z,8.93
2023-04-26T18:21:58.572Z,8.94
2023-04-26T18:25:03.996Z,8.82
2023-04-26T18:28:12.877Z,8.70
2023-04-26T18:31:16.684Z,8.77
2023-04-26T18:34:20.526Z,8.71
2023-04-26T18:37:26.826Z,8.70
2023-04-26T18:40:34.095Z,8.63
2023-04-26T18:43:37.945Z,8.62
2023-04-26T18:46:49.302Z,8.58
2023-04-26T18:49:59.724Z,8.59
2023-04-26T18:53:33.029Z,8.61
2023-04-26T18:56:50.094Z,8.62
2023-04-26T18:59:57.338Z,8.61
2023-04-26T19:03:02.914Z,8.63
2023-04-26T19:06:10.401Z,8.66
2023-04-26T19:09:13.836Z,8.69
2023-04-26T19:12:18.537Z,8.62
2023-04-26T19:15:24.074Z,8.65
2023-04-26T19:18:27.723Z,8.53
2023-04-26T19:21:31.418Z,8.51
2023-04-26T19:24:34.448Z,8.52
2023-04-26T19:27:39.025Z,8.47
2023-04-26T19:30:42.933Z,8.34
2023-04-26T19:33:48.713Z,8.30
2023-04-26T19:36:52.848Z,8.25
2023-04-26T19:39:56.027Z,8.14
2023-04-26T19:43:00.760Z,8.19
2023-04-26T19:46:14.787Z,7.91
2023-04-26T19:49:18.644Z,7.93
2023-04-26T19:52:26.231Z,7.91
2023-04-26T19:55:49.920Z,7.81
2023-04-26T20:03:02.629Z,7.78
2023-04-26T20:06:17.158Z,7.67
2023-04-26T20:09:20.848Z,7.51
2023-04-26T20:12:24.141Z,7.57
2023-04-26T20:15:32.258Z,7.53
2023-04-26T20:18:39.315Z,7.51
2023-04-26T20:21:45.266Z,7.55
2023-04-26T20:24:48.416Z,7.64
2023-04-26T20:27:51.487Z,7.65
2023-04-26T20:30:56.212Z,7.68
2023-04-26T20:34:00.671Z,7.65
2023-04-26T20:37:04.018Z,7.64
2023-04-26T20:40:09.313Z,7.57
2023-04-26T20:43:14.077Z,7.53
2023-04-26T20:46:18.494Z,7.51
2023-04-26T20:49:22.117Z,7.52
2023-04-26T20:52:25.175Z,7.46
2023-04-26T20:55:34.043Z,7.38
2023-04-26T20:58:42.178Z,7.31
2023-04-26T21:01:47.035Z,7.28
2023-04-26T21:04:50.233Z,7.25
2023-04-26T21:07:56.538Z,7.18
2023-04-26T21:10:59.532Z,7.16
2023-04-26T21:14:10.958Z,7.13
2023-04-26T21:17:15.655Z,6.99
2023-04-26T21:20:18.946Z,6.97
2023-04-26T21:23:21.971Z,7.05
2023-04-26T21:26:25.082Z,7.10
2023-04-26T21:29:31.977Z,7.10
2023-04-26T21:32:37.692Z,7.12
2023-04-26T21:35:43.843Z,7.20
2023-04-26T21:38:48.313Z,7.18
2023-04-26T21:41:51.436Z,7.23
2023-04-26T21:44:54.465Z,7.21
2023-04-26T21:47:58.806Z,7.12
2023-04-26T21:51:02.037Z,7.20
2023-04-26T21:54:05.126Z,7.20
2023-04-26T21:57:09.339Z,7.23
2023-04-26T22:00:13.551Z,7.20
2023-04-26T22:03:21.782Z,7.26
2023-04-26T22:06:25.060Z,7.29
2023-04-26T22:09:28.767Z,7.31
2023-04-26T22:12:34.660Z,7.40
2023-04-26T22:15:37.969Z,7.39
2023-04-26T22:18:46.361Z,7.45
2023-04-26T22:21:49.343Z,7.50
2023-04-26T22:24:52.409Z,7.49
2023-04-26T22:27:58.495Z,7.52
2023-04-26T22:31:04.069Z,7.48
2023-04-26T22:34:11.750Z,7.49
2023-04-26T22:37:26.591Z,7.50
2023-04-26T22:40:29.902Z,7.47
2023-04-26T22:43:36.010Z,7.51
2023-04-26T22:46:41.236Z,7.49
2023-04-26T22:49:45.613Z,7.46
2023-04-26T22:52:52.457Z,7.46
2023-04-26T22:55:55.604Z,7.46
2023-04-26T22:59:00.371Z,7.46
2023-04-26T23:02:03.953Z,7.43
2023-04-26T23:05:11.583Z,7.40
2023-04-26T23:08:21.343Z,7.39
2023-04-26T23:11:24.446Z,7.37
2023-04-26T23:14:37.871Z,7.34
2023-04-26T23:17:51.525Z,7.39
2023-04-26T23:21:01.316Z,7.35
2023-04-26T23:24:08.232Z,7.30
2023-04-26T23:27:15.185Z,7.31
2023-04-26T23:30:18.937Z,7.33
2023-04-26T23:33:31.809Z,7.35
2023-04-26T23:36:52.953Z,7.34
2023-04-26T23:39:56.717Z,7.32
2023-04-26T23:43:06.400Z,7.33
2023-04-26T23:46:09.767Z,7.36
2023-04-26T23:49:13.367Z,7.33
2023-04-26T23:52:20.245Z,7.32
2023-04-26T23:55:23.900Z,7.30
2023-04-26T23:58:31.178Z,7.25
